sensor_id;sensor_type;location;lat;lon;timestamp;temperature;humidity
21417;DHT22;10869;52.238;10.716;2023-12-14T04:16:26;2.80;99.90
21417;DHT22;10869;52.238;10.716;2023-12-14T04:18:52;2.80;99.90
21417;DHT22;10869;52.238;10.716;2023-12-14T04:21:21;2.80;99.90
21417;DHT22;10869;52.238;10.716;2023-12-14T04:23:46;2.80;99.90
21417;DHT22;10869;52.238;10.716;2023-12-14T04:26:12;2.80;99.90
21417;DHT22;10869;52.238;10.716;2023-12-14T04:28:39;2.80;99.90
21417;DHT22;10869;52.238;10.716;2023-12-14T04:31:05;2.80;99.90
21417;DHT22;10869;52.238;10.716;2023-12-14T04:33:31;2.90;99.90
21417;DHT22;10869;52.238;10.716;2023-12-14T04:35:57;2.80;99.90
21417;DHT22;10869;52.238;10.716;2023-12-14T04:38:23;2.80;99.90
21417;DHT22;10869;52.238;10.716;2023-12-14T04:40:48;2.80;99.90
21417;DHT22;10869;52.238;10.716;2023-12-14T04:43:14;2.80;99.90
21417;DHT22;10869;52.238;10.716;2023-12-14T04:45:40;2.80;99.90
21417;DHT22;10869;52.238;10.716;2023-12-14T04:48:06;2.90;99.90
21417;DHT22;10869;52.238;10.716;2023-12-14T04:50:32;2.80;99.90
21417;DHT22;10869;52.238;10.716;2023-12-14T04:52:57;2.80;99.90
21417;DHT22;10869;52.238;10.716;2023-12-14T04:55:23;2.80;99.90
21417;DHT22;10869;52.238;10.716;2023-12-14T04:57:49;2.90;99.90
21417;DHT22;10869;52.238;10.716;2023-12-14T05:00:15;2.90;99.90
21417;DHT22;10869;52.238;10.716;2023-12-14T05:02:41;2.90;99.90
21417;DHT22;10869;52.238;10.716;2023-12-14T05:05:06;2.90;99.90
21417;DHT22;10869;52.238;10.716;2023-12-14T05:07:32;2.90;99.90
21417;DHT22;10869;52.238;10.716;2023-12-14T05:09:58;2.90;99.90
21417;DHT22;10869;52.238;10.716;2023-12-14T05:12:24;3.00;99.90
21417;DHT22;10869;52.238;10.716;2023-12-14T05:14:51;3.00;99.90
21417;DHT22;10869;52.238;10.716;2023-12-14T05:17:17;2.90;99.90
21417;DHT22;10869;52.238;10.716;2023-12-14T05:19:42;3.00;99.90
21417;DHT22;10869;52.238;10.716;2023-12-14T05:22:08;3.00;99.90
21417;DHT22;10869;52.238;10.716;2023-12-14T05:24:34;3.00;99.90
21417;DHT22;10869;52.238;10.716;2023-12-14T05:27:00;3.00;99.90
21417;DHT22;10869;52.238;10.716;2023-12-14T05:29:25;3.00;99.90
21417;DHT22;10869;52.238;10.716;2023-12-14T05:31:51;3.00;99.90
21417;DHT22;10869;52.238;10.716;2023-12-14T05:34:17;3.00;99.90
21417;DHT22;10869;52.238;10.716;2023-12-14T05:36:44;3.00;99.90
21417;DHT22;10869;52.238;10.716;2023-12-14T05:39:10;3.00;99.90
21417;DHT22;10869;52.238;10.716;2023-12-14T05:41:41;3.00;99.90
21417;DHT22;10869;52.238;10.716;2023-12-14T05:44:07;3.00;99.90
21417;DHT22;10869;52.238;10.716;2023-12-14T05:46:33;3.00;99.90
21417;DHT22;10869;52.238;10.716;2023-12-14T05:48:59;3.10;99.90
21417;DHT22;10869;52.238;10.716;2023-12-14T05:51:32;3.00;99.90
21417;DHT22;10869;52.238;10.716;2023-12-14T05:53:58;3.00;99.90
21417;DHT22;10869;52.238;10.716;2023-12-14T05:56:27;3.00;99.90
21417;DHT22;10869;52.238;10.716;2023-12-14T05:58:52;3.00;99.90
21417;DHT22;10869;52.238;10.716;2023-12-14T06:01:18;3.00;99.90
21417;DHT22;10869;52.238;10.716;2023-12-14T06:03:45;3.00;99.90
21417;DHT22;10869;52.238;10.716;2023-12-14T06:06:11;3.00;99.90
21417;DHT22;10869;52.238;10.716;2023-12-14T06:08:38;3.00;99.90
21417;DHT22;10869;52.238;10.716;2023-12-14T06:11:04;3.00;99.90
21417;DHT22;10869;52.238;10.716;2023-12-14T06:13:32;2.90;99.90
21417;DHT22;10869;52.238;10.716;2023-12-14T06:15:58;2.90;99.90
21417;DHT22;10869;52.238;10.716;2023-12-14T06:18:24;2.90;99.90
21417;DHT22;10869;52.238;10.716;2023-12-14T06:20:50;2.90;99.90
21417;DHT22;10869;52.238;10.716;2023-12-14T06:23:16;2.90;99.90
21417;DHT22;10869;52.238;10.716;2023-12-14T06:25:42;2.90;99.90
21417;DHT22;10869;52.238;10.716;2023-12-14T06:28:07;2.90;99.90
21417;DHT22;10869;52.238;10.716;2023-12-14T06:30:33;2.90;99.90
21417;DHT22;10869;52.238;10.716;2023-12-14T06:32:59;2.90;99.90
21417;DHT22;10869;52.238;10.716;2023-12-14T06:35:25;2.80;99.90
21417;DHT22;10869;52.238;10.716;2023-12-14T06:37:51;2.90;99.90
21417;DHT22;10869;52.238;10.716;2023-12-14T06:40:16;2.80;99.90
21417;DHT22;10869;52.238;10.716;2023-12-14T06:42:42;2.80;99.90
21417;DHT22;10869;52.238;10.716;2023-12-14T06:45:09;2.80;99.90
21417;DHT22;10869;52.238;10.716;2023-12-14T06:47:35;2.80;99.90
21417;DHT22;10869;52.238;10.716;2023-12-14T06:50:01;2.80;99.90
21417;DHT22;10869;52.238;10.716;2023-12-14T06:52:27;2.80;99.90
21417;DHT22;10869;52.238;10.716;2023-12-14T06:54:52;2.80;99.90
21417;DHT22;10869;52.238;10.716;2023-12-14T06:57:18;2.80;99.90
21417;DHT22;10869;52.238;10.716;2023-12-14T06:59:44;2.90;99.90
21417;DHT22;10869;52.238;10.716;2023-12-14T07:02:09;2.90;99.90
21417;DHT22;10869;52.238;10.716;2023-12-14T07:04:35;2.80;99.90
21417;DHT22;10869;52.238;10.716;2023-12-14T07:07:01;2.80;99.90
21417;DHT22;10869;52.238;10.716;2023-12-14T07:09:27;2.80;99.90
21417;DHT22;10869;52.238;10.716;2023-12-14T07:11:53;2.80;99.90
21417;DHT22;10869;52.238;10.716;2023-12-14T07:17:40;2.80;99.90
21417;DHT22;10869;52.238;10.716;2023-12-14T07:23:29;2.80;99.90
21417;DHT22;10869;52.238;10.716;2023-12-14T07:25:54;2.80;99.90
21417;DHT22;10869;52.238;10.716;2023-12-14T07:31:42;2.80;99.90
21417;DHT22;10869;52.238;10.716;2023-12-14T07:37:30;2.80;99.90
21417;DHT22;10869;52.238;10.716;2023-12-14T07:40:25;2.80;99.90
21417;DHT22;10869;52.238;10.716;2023-12-14T07:46:13;2.80;99.90
21417;DHT22;10869;52.238;10.716;2023-12-14T07:52:00;2.80;99.90
21417;DHT22;10869;52.238;10.716;2023-12-14T07:54:26;2.80;99.90
21417;DHT22;10869;52.238;10.716;2023-12-14T07:56:52;2.80;99.90
21417;DHT22;10869;52.238;10.716;2023-12-14T07:59:18;2.80;99.90
21417;DHT22;10869;52.238;10.716;2023-12-14T08:01:43;2.80;99.90
21417;DHT22;10869;52.238;10.716;2023-12-14T08:04:09;2.80;99.90
21417;DHT22;10869;52.238;10.716;2023-12-14T08:09:59;2.80;99.90
21417;DHT22;10869;52.238;10.716;2023-12-14T08:12:27;2.90;99.90
21417;DHT22;10869;52.238;10.716;2023-12-14T08:14:52;2.90;99.90
21417;DHT22;10869;52.238;10.716;2023-12-14T08:17:19;2.90;99.90
21417;DHT22;10869;52.238;10.716;2023-12-14T08:23:08;3.00;99.90
21417;DHT22;10869;52.238;10.716;2023-12-14T08:28:55;3.00;99.90
21417;DHT22;10869;52.238;10.716;2023-12-14T08:34:43;2.90;99.90
21417;DHT22;10869;52.238;10.716;2023-12-14T08:37:15;3.00;99.90
21417;DHT22;10869;52.238;10.716;2023-12-14T08:42:48;3.00;99.90
21417;DHT22;10869;52.238;10.716;2023-12-14T08:48:38;2.90;99.90
21417;DHT22;10869;52.238;10.716;2023-12-14T08:51:05;3.00;99.90
21417;DHT22;10869;52.238;10.716;2023-12-14T08:53:30;3.00;99.90
21417;DHT22;10869;52.238;10.716;2023-12-14T08:59:20;3.00;99.90
21417;DHT22;10869;52.238;10.716;2023-12-14T09:05:08;3.00;99.90
21417;DHT22;10869;52.238;10.716;2023-12-14T09:07:34;3.00;99.90
21417;DHT22;10869;52.238;10.716;2023-12-14T09:09:59;3.00;99.90
21417;DHT22;10869;52.238;10.716;2023-12-14T09:12:28;3.00;99.90
21417;DHT22;10869;52.238;10.716;2023-12-14T09:14:54;3.00;99.90
21417;DHT22;10869;52.238;10.716;2023-12-14T09:17:20;3.00;99.90
21417;DHT22;10869;52.238;10.716;2023-12-14T09:19:45;3.00;99.90
21417;DHT22;10869;52.238;10.716;2023-12-14T09:22:11;3.00;99.90
21417;DHT22;10869;52.238;10.716;2023-12-14T09:24:37;3.00;99.90
21417;DHT22;10869;52.238;10.716;2023-12-14T09:27:02;3.10;99.90
21417;DHT22;10869;52.238;10.716;2023-12-14T09:29:28;3.10;99.90
21417;DHT22;10869;52.238;10.716;2023-12-14T09:31:54;3.10;99.90
21417;DHT22;10869;52.238;10.716;2023-12-14T09:34:20;3.10;99.90
21417;DHT22;10869;52.238;10.716;2023-12-14T09:40:08;3.10;99.90
21417;DHT22;10869;52.238;10.716;2023-12-14T09:42:37;3.10;99.90
21417;DHT22;10869;52.238;10.716;2023-12-14T09:48:26;3.20;99.90
21417;DHT22;10869;52.238;10.716;2023-12-14T09:50:53;3.20;99.90
21417;DHT22;10869;52.238;10.716;2023-12-14T09:53:19;3.20;99.90
21417;DHT22;10869;52.238;10.716;2023-12-14T09:55:48;3.20;99.90
21417;DHT22;10869;52.238;10.716;2023-12-14T09:58:17;3.20;99.90
21417;DHT22;10869;52.238;10.716;2023-12-14T10:00:42;3.20;99.90
21417;DHT22;10869;52.238;10.716;2023-12-14T10:05:48;3.30;99.90
21417;DHT22;10869;52.238;10.716;2023-12-14T10:08:18;3.30;99.90
21417;DHT22;10869;52.238;10.716;2023-12-14T10:10:49;3.30;99.90
21417;DHT22;10869;52.238;10.716;2023-12-14T10:13:15;3.30;99.90
21417;DHT22;10869;52.238;10.716;2023-12-14T10:19:03;3.30;99.90
21417;DHT22;10869;52.238;10.716;2023-12-14T10:21:29;3.30;99.90
21417;DHT22;10869;52.238;10.716;2023-12-14T10:23:58;3.30;99.90
21417;DHT22;10869;52.238;10.716;2023-12-14T10:26:25;3.30;99.90
21417;DHT22;10869;52.238;10.716;2023-12-14T10:28:54;3.30;99.90
21417;DHT22;10869;52.238;10.716;2023-12-14T10:31:20;3.40;99.90
21417;DHT22;10869;52.238;10.716;2023-12-14T10:33:47;3.40;99.90
21417;DHT22;10869;52.238;10.716;2023-12-14T10:36:13;3.40;99.90
21417;DHT22;10869;52.238;10.716;2023-12-14T10:38:41;3.50;99.90
21417;DHT22;10869;52.238;10.716;2023-12-14T10:41:09;3.50;99.90
21417;DHT22;10869;52.238;10.716;2023-12-14T10:46:59;3.60;99.90
21417;DHT22;10869;52.238;10.716;2023-12-14T10:49:25;3.60;99.90
21417;DHT22;10869;52.238;10.716;2023-12-14T10:51:53;3.60;99.90
21417;DHT22;10869;52.238;10.716;2023-12-14T10:54:21;3.60;99.90
21417;DHT22;10869;52.238;10.716;2023-12-14T10:56:48;3.60;99.90
21417;DHT22;10869;52.238;10.716;2023-12-14T10:59:17;3.60;99.90
21417;DHT22;10869;52.238;10.716;2023-12-14T11:01:43;3.60;99.90
21417;DHT22;10869;52.238;10.716;2023-12-14T11:04:10;3.60;99.90
21417;DHT22;10869;52.238;10.716;2023-12-14T11:06:40;3.70;99.90
21417;DHT22;10869;52.238;10.716;2023-12-14T11:09:08;3.70;99.90
21417;DHT22;10869;52.238;10.716;2023-12-14T11:11:47;3.70;99.90
21417;DHT22;10869;52.238;10.716;2023-12-14T11:14:23;3.60;99.90
21417;DHT22;10869;52.238;10.716;2023-12-14T11:20:24;3.60;99.90
21417;DHT22;10869;52.238;10.716;2023-12-14T11:22:51;3.50;99.90
21417;DHT22;10869;52.238;10.716;2023-12-14T11:25:37;3.60;99.90
21417;DHT22;10869;52.238;10.716;2023-12-14T11:28:09;3.60;99.90
21417;DHT22;10869;52.238;10.716;2023-12-14T11:30:35;3.60;99.90
21417;DHT22;10869;52.238;10.716;2023-12-14T11:33:02;3.60;99.90
21417;DHT22;10869;52.238;10.716;2023-12-14T11:35:28;3.60;99.90
21417;DHT22;10869;52.238;10.716;2023-12-14T11:37:55;3.60;99.90
21417;DHT22;10869;52.238;10.716;2023-12-14T11:40:23;3.60;99.90
21417;DHT22;10869;52.238;10.716;2023-12-14T11:43:07;3.60;99.90
21417;DHT22;10869;52.238;10.716;2023-12-14T11:45:38;3.60;99.90
21417;DHT22;10869;52.238;10.716;2023-12-14T11:48:13;3.60;99.90
21417;DHT22;10869;52.238;10.716;2023-12-14T11:50:39;3.60;99.90
21417;DHT22;10869;52.238;10.716;2023-12-14T11:53:05;3.60;99.90
21417;DHT22;10869;52.238;10.716;2023-12-14T11:55:34;3.50;99.90
21417;DHT22;10869;52.238;10.716;2023-12-14T11:58:00;3.60;99.90
21417;DHT22;10869;52.238;10.716;2023-12-14T12:00:27;3.50;99.90
21417;DHT22;10869;52.238;10.716;2023-12-14T12:03:17;3.50;99.90
21417;DHT22;10869;52.238;10.716;2023-12-14T12:09:06;3.50;99.90
21417;DHT22;10869;52.238;10.716;2023-12-14T12:11:43;3.50;99.90
21417;DHT22;10869;52.238;10.716;2023-12-14T12:14:12;3.50;99.90
21417;DHT22;10869;52.238;10.716;2023-12-14T12:16:40;3.50;99.90
21417;DHT22;10869;52.238;10.716;2023-12-14T12:19:06;3.50;99.90
21417;DHT22;10869;52.238;10.716;2023-12-14T12:21:32;3.50;99.90
21417;DHT22;10869;52.238;10.716;2023-12-14T12:23:58;3.50;99.90
21417;DHT22;10869;52.238;10.716;2023-12-14T12:26:23;3.50;99.90
21417;DHT22;10869;52.238;10.716;2023-12-14T12:28:49;3.50;99.90
21417;DHT22;10869;52.238;10.716;2023-12-14T12:31:15;3.40;99.90
21417;DHT22;10869;52.238;10.716;2023-12-14T12:33:41;3.40;99.90
21417;DHT22;10869;52.238;10.716;2023-12-14T12:36:07;3.40;99.90
21417;DHT22;10869;52.238;10.716;2023-12-14T12:38:33;3.50;99.90
21417;DHT22;10869;52.238;10.716;2023-12-14T12:40:59;3.40;99.90
21417;DHT22;10869;52.238;10.716;2023-12-14T12:43:26;3.50;99.90
21417;DHT22;10869;52.238;10.716;2023-12-14T12:45:51;3.50;99.90
21417;DHT22;10869;52.238;10.716;2023-12-14T12:48:17;3.50;99.90
21417;DHT22;10869;52.238;10.716;2023-12-14T12:50:43;3.50;99.90
21417;DHT22;10869;52.238;10.716;2023-12-14T12:53:10;3.60;99.90
21417;DHT22;10869;52.238;10.716;2023-12-14T12:55:35;3.60;99.90
21417;DHT22;10869;52.238;10.716;2023-12-14T12:58:01;3.60;99.90
21417;DHT22;10869;52.238;10.716;2023-12-14T13:03:55;3.60;99.90
21417;DHT22;10869;52.238;10.716;2023-12-14T13:09:46;3.60;99.90
21417;DHT22;10869;52.238;10.716;2023-12-14T13:15:34;3.60;99.90
21417;DHT22;10869;52.238;10.716;2023-12-14T13:21:22;3.50;99.90
21417;DHT22;10869;52.238;10.716;2023-12-14T13:27:10;3.50;99.90
21417;DHT22;10869;52.238;10.716;2023-12-14T13:29:36;3.50;99.90
21417;DHT22;10869;52.238;10.716;2023-12-14T13:35:24;3.50;99.90
21417;DHT22;10869;52.238;10.716;2023-12-14T13:37:50;3.50;99.90
21417;DHT22;10869;52.238;10.716;2023-12-14T13:40:16;3.50;99.90
21417;DHT22;10869;52.238;10.716;2023-12-14T13:42:42;3.50;99.90
21417;DHT22;10869;52.238;10.716;2023-12-14T13:45:08;3.50;99.90
21417;DHT22;10869;52.238;10.716;2023-12-14T13:47:34;3.60;99.90
21417;DHT22;10869;52.238;10.716;2023-12-14T13:50:00;3.50;99.90
21417;DHT22;10869;52.238;10.716;2023-12-14T13:52:25;3.50;99.90
21417;DHT22;10869;52.238;10.716;2023-12-14T13:54:51;3.50;99.90
21417;DHT22;10869;52.238;10.716;2023-12-14T13:57:17;3.50;99.90
21417;DHT22;10869;52.238;10.716;2023-12-14T13:59:43;3.50;99.90
21417;DHT22;10869;52.238;10.716;2023-12-14T14:02:08;3.50;99.90
21417;DHT22;10869;52.238;10.716;2023-12-14T14:04:35;3.50;99.90
21417;DHT22;10869;52.238;10.716;2023-12-14T14:10:23;3.50;99.90
21417;DHT22;10869;52.238;10.716;2023-12-14T14:12:49;3.50;99.90
21417;DHT22;10869;52.238;10.716;2023-12-14T14:15:15;3.50;99.90
21417;DHT22;10869;52.238;10.716;2023-12-14T14:21:06;3.50;99.90
21417;DHT22;10869;52.238;10.716;2023-12-14T14:23:35;3.50;99.90
21417;DHT22;10869;52.238;10.716;2023-12-14T14:26:01;3.50;99.90
21417;DHT22;10869;52.238;10.716;2023-12-14T14:28:26;3.50;99.90
21417;DHT22;10869;52.238;10.716;2023-12-14T14:30:52;3.50;99.90
21417;DHT22;10869;52.238;10.716;2023-12-14T14:33:18;3.50;99.90
21417;DHT22;10869;52.238;10.716;2023-12-14T14:35:47;3.50;99.90
21417;DHT22;10869;52.238;10.716;2023-12-14T14:38:14;3.50;99.90
21417;DHT22;10869;52.238;10.716;2023-12-14T14:40:41;3.50;99.90
21417;DHT22;10869;52.238;10.716;2023-12-14T14:43:10;3.50;99.90
21417;DHT22;10869;52.238;10.716;2023-12-14T14:45:36;3.50;99.90
21417;DHT22;10869;52.238;10.716;2023-12-14T14:48:04;3.50;99.90
21417;DHT22;10869;52.238;10.716;2023-12-14T14:50:34;3.50;99.90
21417;DHT22;10869;52.238;10.716;2023-12-14T14:53:01;3.50;99.90
21417;DHT22;10869;52.238;10.716;2023-12-14T14:55:26;3.50;99.90
21417;DHT22;10869;52.238;10.716;2023-12-14T14:57:52;3.50;99.90
21417;DHT22;10869;52.238;10.716;2023-12-14T15:07:20;3.50;99.90
21417;DHT22;10869;52.238;10.716;2023-12-14T15:09:48;3.50;99.90
21417;DHT22;10869;52.238;10.716;2023-12-14T15:12:14;3.50;99.90
21417;DHT22;10869;52.238;10.716;2023-12-14T15:14:40;3.50;99.90
21417;DHT22;10869;52.238;10.716;2023-12-14T15:17:09;3.50;99.90
21417;DHT22;10869;52.238;10.716;2023-12-14T15:19:35;3.50;99.90
21417;DHT22;10869;52.238;10.716;2023-12-14T15:22:01;3.50;99.90
21417;DHT22;10869;52.238;10.716;2023-12-14T15:24:27;3.50;99.90
21417;DHT22;10869;52.238;10.716;2023-12-14T15:26:53;3.50;99.90
21417;DHT22;10869;52.238;10.716;2023-12-14T15:32:43;3.50;99.90
21417;DHT22;10869;52.238;10.716;2023-12-14T15:35:08;3.50;99.90
21417;DHT22;10869;52.238;10.716;2023-12-14T15:37:35;3.40;99.90
21417;DHT22;10869;52.238;10.716;2023-12-14T15:40:00;3.50;99.90
21417;DHT22;10869;52.238;10.716;2023-12-14T15:42:28;3.40;99.90
21417;DHT22;10869;52.238;10.716;2023-12-14T15:44:59;3.40;99.90
21417;DHT22;10869;52.238;10.716;2023-12-14T15:47:26;3.50;99.90
21417;DHT22;10869;52.238;10.716;2023-12-14T15:49:52;3.40;99.90
21417;DHT22;10869;52.238;10.716;2023-12-14T15:52:19;3.40;99.90
21417;DHT22;10869;52.238;10.716;2023-12-14T15:54:45;3.50;99.90
21417;DHT22;10869;52.238;10.716;2023-12-14T15:57:11;3.50;99.90
21417;DHT22;10869;52.238;10.716;2023-12-14T15:59:43;3.50;99.90
21417;DHT22;10869;52.238;10.716;2023-12-14T16:02:17;3.50;99.90
21417;DHT22;10869;52.238;10.716;2023-12-14T16:07:58;3.50;99.90
21417;DHT22;10869;52.238;10.716;2023-12-14T16:10:24;3.50;99.90
21417;DHT22;10869;52.238;10.716;2023-12-14T16:12:51;3.50;99.90
21417;DHT22;10869;52.238;10.716;2023-12-14T16:15:18;3.40;99.90
21417;DHT22;10869;52.238;10.716;2023-12-14T16:17:45;3.40;99.90
21417;DHT22;10869;52.238;10.716;2023-12-14T16:20:17;3.40;99.90
21417;DHT22;10869;52.238;10.716;2023-12-14T16:30:07;3.40;99.90
21417;DHT22;10869;52.238;10.716;2023-12-14T16:36:09;3.30;99.90
21417;DHT22;10869;52.238;10.716;2023-12-14T16:41:58;3.30;99.90
21417;DHT22;10869;52.238;10.716;2023-12-14T16:44:24;3.30;99.90
21417;DHT22;10869;52.238;10.716;2023-12-14T16:46:51;3.30;99.90
21417;DHT22;10869;52.238;10.716;2023-12-14T16:49:17;3.30;99.90
21417;DHT22;10869;52.238;10.716;2023-12-14T16:55:15;3.40;99.90
21417;DHT22;10869;52.238;10.716;2023-12-14T16:57:44;3.40;99.90
21417;DHT22;10869;52.238;10.716;2023-12-14T17:05:20;3.40;99.90
21417;DHT22;10869;52.238;10.716;2023-12-14T17:11:08;3.50;99.90
21417;DHT22;10869;52.238;10.716;2023-12-14T17:16:56;3.40;99.90
21417;DHT22;10869;52.238;10.716;2023-12-14T17:19:22;3.50;99.90
21417;DHT22;10869;52.238;10.716;2023-12-14T17:21:50;3.50;99.90
21417;DHT22;10869;52.238;10.716;2023-12-14T17:27:39;3.50;99.90
21417;DHT22;10869;52.238;10.716;2023-12-14T17:30:05;3.40;99.90
21417;DHT22;10869;52.238;10.716;2023-12-14T17:32:32;3.40;99.90
21417;DHT22;10869;52.238;10.716;2023-12-14T17:34:58;3.40;99.90
21417;DHT22;10869;52.238;10.716;2023-12-14T17:37:23;3.40;99.90
21417;DHT22;10869;52.238;10.716;2023-12-14T17:39:49;3.40;99.90
21417;DHT22;10869;52.238;10.716;2023-12-14T17:42:15;3.40;99.90
21417;DHT22;10869;52.238;10.716;2023-12-14T17:44:40;3.40;99.90
21417;DHT22;10869;52.238;10.716;2023-12-14T17:47:06;3.40;99.90
21417;DHT22;10869;52.238;10.716;2023-12-14T17:49:32;3.40;99.90
21417;DHT22;10869;52.238;10.716;2023-12-14T17:51:57;3.50;99.90
21417;DHT22;10869;52.238;10.716;2023-12-14T17:54:23;3.40;99.90
21417;DHT22;10869;52.238;10.716;2023-12-14T17:56:49;3.50;99.90
21417;DHT22;10869;52.238;10.716;2023-12-14T17:59:15;3.50;99.90
21417;DHT22;10869;52.238;10.716;2023-12-14T18:01:44;3.50;99.90
21417;DHT22;10869;52.238;10.716;2023-12-14T18:04:13;3.50;99.90
21417;DHT22;10869;52.238;10.716;2023-12-14T18:09:53;3.50;99.90
21417;DHT22;10869;52.238;10.716;2023-12-14T18:12:18;3.50;99.90
21417;DHT22;10869;52.238;10.716;2023-12-14T18:14:47;3.50;99.90
21417;DHT22;10869;52.238;10.716;2023-12-14T18:17:24;3.40;99.90
21417;DHT22;10869;52.238;10.716;2023-12-14T18:19:56;3.40;99.90
21417;DHT22;10869;52.238;10.716;2023-12-14T18:22:36;3.40;99.90
21417;DHT22;10869;52.238;10.716;2023-12-14T18:25:02;3.40;99.90
21417;DHT22;10869;52.238;10.716;2023-12-14T18:27:28;3.40;99.90
21417;DHT22;10869;52.238;10.716;2023-12-14T18:29:54;3.50;99.90
21417;DHT22;10869;52.238;10.716;2023-12-14T18:32:20;3.40;99.90
21417;DHT22;10869;52.238;10.716;2023-12-14T18:34:46;3.40;99.90
21417;DHT22;10869;52.238;10.716;2023-12-14T18:37:12;3.40;99.90
21417;DHT22;10869;52.238;10.716;2023-12-14T18:39:41;3.40;99.90
21417;DHT22;10869;52.238;10.716;2023-12-14T18:42:07;3.40;99.90
21417;DHT22;10869;52.238;10.716;2023-12-14T18:44:33;3.40;99.90
21417;DHT22;10869;52.238;10.716;2023-12-14T18:46:59;3.40;99.90
21417;DHT22;10869;52.238;10.716;2023-12-14T18:49:52;3.40;99.90
21417;DHT22;10869;52.238;10.716;2023-12-14T18:52:17;3.50;99.90
21417;DHT22;10869;52.238;10.716;2023-12-14T18:54:45;3.50;99.90
21417;DHT22;10869;52.238;10.716;2023-12-14T18:57:20;3.50;99.90
21417;DHT22;10869;52.238;10.716;2023-12-14T18:59:45;3.50;99.90
21417;DHT22;10869;52.238;10.716;2023-12-14T19:05:04;3.50;99.90
21417;DHT22;10869;52.238;10.716;2023-12-14T19:07:30;3.50;99.90
21417;DHT22;10869;52.238;10.716;2023-12-14T19:13:15;3.50;99.90
21417;DHT22;10869;52.238;10.716;2023-12-14T19:15:41;3.50;99.90
21417;DHT22;10869;52.238;10.716;2023-12-14T19:18:07;3.50;99.90
21417;DHT22;10869;52.238;10.716;2023-12-14T19:20:47;3.50;99.90
21417;DHT22;10869;52.238;10.716;2023-12-14T19:29:49;3.40;99.90
21417;DHT22;10869;52.238;10.716;2023-12-14T19:35:39;3.40;99.90
21417;DHT22;10869;52.238;10.716;2023-12-14T19:41:30;3.30;99.90
21417;DHT22;10869;52.238;10.716;2023-12-14T19:44:28;3.30;99.90
21417;DHT22;10869;52.238;10.716;2023-12-14T19:50:16;3.40;99.90
21417;DHT22;10869;52.238;10.716;2023-12-14T19:52:42;3.30;99.90
21417;DHT22;10869;52.238;10.716;2023-12-14T19:55:08;3.30;99.90
21417;DHT22;10869;52.238;10.716;2023-12-14T20:00:58;3.30;99.90
21417;DHT22;10869;52.238;10.716;2023-12-14T20:03:24;3.30;99.90
21417;DHT22;10869;52.238;10.716;2023-12-14T20:05:49;3.30;99.90
21417;DHT22;10869;52.238;10.716;2023-12-14T20:08:16;3.30;99.90
21417;DHT22;10869;52.238;10.716;2023-12-14T20:10:48;3.30;99.90
21417;DHT22;10869;52.238;10.716;2023-12-14T20:13:14;3.20;99.90
21417;DHT22;10869;52.238;10.716;2023-12-14T20:15:40;3.20;99.90
21417;DHT22;10869;52.238;10.716;2023-12-14T20:18:07;3.20;99.90
21417;DHT22;10869;52.238;10.716;2023-12-14T20:20:34;3.20;99.90
21417;DHT22;10869;52.238;10.716;2023-12-14T20:23:03;3.20;99.90
21417;DHT22;10869;52.238;10.716;2023-12-14T20:25:30;3.20;99.90
21417;DHT22;10869;52.238;10.716;2023-12-14T20:27:59;3.20;99.90
21417;DHT22;10869;52.238;10.716;2023-12-14T20:30:33;3.20;99.90
21417;DHT22;10869;52.238;10.716;2023-12-14T20:32:59;3.20;99.90
21417;DHT22;10869;52.238;10.716;2023-12-14T20:35:45;3.20;99.90
21417;DHT22;10869;52.238;10.716;2023-12-14T20:38:21;3.20;99.90
21417;DHT22;10869;52.238;10.716;2023-12-14T20:40:47;3.20;99.90
21417;DHT22;10869;52.238;10.716;2023-12-14T20:46:34;3.20;99.90
21417;DHT22;10869;52.238;10.716;2023-12-14T20:49:00;3.20;99.90
21417;DHT22;10869;52.238;10.716;2023-12-14T20:51:26;3.10;99.90
21417;DHT22;10869;52.238;10.716;2023-12-14T20:57:14;3.10;99.90
21417;DHT22;10869;52.238;10.716;2023-12-14T20:59:39;3.00;99.90
21417;DHT22;10869;52.238;10.716;2023-12-14T21:02:06;3.00;99.90
21417;DHT22;10869;52.238;10.716;2023-12-14T21:07:46;2.80;99.90
21417;DHT22;10869;52.238;10.716;2023-12-14T21:10:12;2.80;99.90
21417;DHT22;10869;52.238;10.716;2023-12-14T21:12:38;2.70;99.90
21417;DHT22;10869;52.238;10.716;2023-12-14T21:15:05;2.70;99.90
21417;DHT22;10869;52.238;10.716;2023-12-14T21:20:53;2.60;99.90
21417;DHT22;10869;52.238;10.716;2023-12-14T21:23:19;2.60;99.90
21417;DHT22;10869;52.238;10.716;2023-12-14T21:25:45;2.60;99.90
21417;DHT22;10869;52.238;10.716;2023-12-14T21:28:29;2.50;99.90
21417;DHT22;10869;52.238;10.716;2023-12-14T21:30:55;2.60;99.90
21417;DHT22;10869;52.238;10.716;2023-12-14T21:33:21;2.50;99.90
21417;DHT22;10869;52.238;10.716;2023-12-14T21:35:47;2.50;99.90
21417;DHT22;10869;52.238;10.716;2023-12-14T21:38:12;2.60;99.90
21417;DHT22;10869;52.238;10.716;2023-12-14T21:40:38;2.60;99.90
21417;DHT22;10869;52.238;10.716;2023-12-14T21:43:05;2.60;99.90
21417;DHT22;10869;52.238;10.716;2023-12-14T21:45:31;2.60;99.90
21417;DHT22;10869;52.238;10.716;2023-12-14T21:47:57;2.60;99.90
21417;DHT22;10869;52.238;10.716;2023-12-14T21:50:22;2.50;99.90
21417;DHT22;10869;52.238;10.716;2023-12-14T21:52:48;2.60;99.90
21417;DHT22;10869;52.238;10.716;2023-12-14T22:00:39;2.50;99.90
21417;DHT22;10869;52.238;10.716;2023-12-14T22:03:05;2.50;99.90
21417;DHT22;10869;52.238;10.716;2023-12-14T22:05:30;2.50;99.90
21417;DHT22;10869;52.238;10.716;2023-12-14T22:07:56;2.40;99.90
21417;DHT22;10869;52.238;10.716;2023-12-14T22:10:22;2.40;99.90
21417;DHT22;10869;52.238;10.716;2023-12-14T22:12:47;2.40;99.90
21417;DHT22;10869;52.238;10.716;2023-12-14T22:15:13;2.30;99.90
21417;DHT22;10869;52.238;10.716;2023-12-14T22:17:40;2.30;99.90
21417;DHT22;10869;52.238;10.716;2023-12-14T22:20:07;2.30;99.90
21417;DHT22;10869;52.238;10.716;2023-12-14T22:22:33;2.20;99.90
21417;DHT22;10869;52.238;10.716;2023-12-14T22:24:59;2.20;99.90
21417;DHT22;10869;52.238;10.716;2023-12-14T22:27:25;2.10;99.90
21417;DHT22;10869;52.238;10.716;2023-12-14T22:29:51;2.10;99.90
21417;DHT22;10869;52.238;10.716;2023-12-14T22:32:16;2.10;99.90
21417;DHT22;10869;52.238;10.716;2023-12-14T22:34:42;2.10;99.90
21417;DHT22;10869;52.238;10.716;2023-12-14T22:37:08;2.10;99.90
21417;DHT22;10869;52.238;10.716;2023-12-14T22:39:33;2.00;99.90
21417;DHT22;10869;52.238;10.716;2023-12-14T22:41:59;2.00;99.90
21417;DHT22;10869;52.238;10.716;2023-12-14T22:44:26;2.00;99.90
21417;DHT22;10869;52.238;10.716;2023-12-14T22:46:52;2.00;99.90
21417;DHT22;10869;52.238;10.716;2023-12-14T22:49:18;2.10;99.90
21417;DHT22;10869;52.238;10.716;2023-12-14T22:51:44;2.10;99.90
21417;DHT22;10869;52.238;10.716;2023-12-14T22:54:10;2.20;99.90
21417;DHT22;10869;52.238;10.716;2023-12-14T22:56:35;2.20;99.90